createdAt,value
2022-10-02T00:02:41.574Z,7.40
2022-10-02T00:07:53.487Z,8.30
2022-10-02T00:12:59.800Z,8.40
2022-10-02T00:18:11.763Z,8.20
2022-10-02T00:23:31.504Z,8.20
2022-10-02T00:29:10.512Z,8.80
2022-10-02T00:34:33.691Z,9.50
2022-10-02T00:39:45.571Z,7.50
2022-10-02T00:45:24.241Z,9.60
2022-10-02T00:50:44.727Z,10.00
2022-10-02T00:56:21.515Z,9.60
2022-10-02T01:01:32.698Z,10.80
2022-10-02T01:11:36.403Z,10.30
2022-10-02T01:16:39.151Z,10.60
2022-10-02T01:21:50.734Z,10.50
2022-10-02T01:31:53.722Z,10.40
2022-10-02T01:36:55.266Z,10.70
2022-10-02T01:52:57.482Z,10.90
2022-10-02T01:58:36.238Z,11.00
2022-10-02T02:03:56.199Z,10.70
2022-10-02T02:09:05.314Z,10.20
2022-10-02T02:14:15.198Z,9.70
2022-10-02T02:19:34.815Z,9.30
2022-10-02T02:24:44.503Z,9.70
2022-10-02T02:29:49.475Z,8.90
2022-10-02T02:34:57.248Z,9.00
2022-10-02T02:40:04.081Z,9.20
2022-10-02T02:45:18.067Z,9.30
2022-10-02T02:50:32.471Z,8.60
2022-10-02T02:55:58.015Z,8.50
2022-10-02T03:00:59.090Z,7.30
2022-10-02T03:11:52.954Z,8.70
2022-10-02T03:17:15.674Z,8.00
2022-10-02T03:22:43.609Z,7.60
2022-10-02T03:27:52.980Z,6.80
2022-10-02T03:32:56.555Z,7.90
2022-10-02T03:38:07.102Z,7.80
2022-10-02T03:43:17.386Z,8.00
2022-10-02T03:48:18.509Z,8.40
2022-10-02T03:58:25.655Z,8.30
2022-10-02T04:03:32.079Z,8.00
2022-10-02T04:08:41.665Z,8.00
2022-10-02T04:14:09.422Z,7.20
2022-10-02T04:19:21.852Z,7.00
2022-10-02T04:24:32.928Z,6.40
2022-10-02T04:34:41.999Z,7.10
2022-10-02T04:40:06.510Z,7.40
2022-10-02T04:45:33.718Z,6.80
2022-10-02T04:50:41.329Z,7.40
2022-10-02T04:56:16.217Z,5.80
2022-10-02T05:01:25.992Z,6.00
2022-10-02T05:07:05.319Z,6.30
2022-10-02T05:12:16.026Z,5.60
2022-10-02T05:17:44.440Z,5.30
2022-10-02T05:23:00.526Z,5.40
2022-10-02T05:28:20.958Z,5.20
2022-10-02T05:33:31.058Z,5.30
2022-10-02T05:38:56.776Z,5.70
2022-10-02T05:44:05.594Z,5.00
2022-10-02T05:49:34.341Z,4.70
2022-10-02T05:54:48.857Z,4.10
2022-10-02T06:00:15.332Z,4.00
2022-10-02T06:05:23.085Z,3.40
2022-10-02T06:10:34.784Z,3.60
2022-10-02T06:16:13.610Z,3.00
2022-10-02T06:21:41.001Z,3.00
2022-10-02T06:26:46.889Z,2.90
2022-10-02T06:32:01.772Z,3.20
2022-10-02T06:37:17.680Z,3.00
2022-10-02T06:42:56.389Z,3.30
2022-10-02T06:48:24.900Z,3.40
2022-10-02T06:53:45.317Z,2.60
2022-10-02T06:59:05.922Z,2.70
2022-10-02T07:04:25.799Z,2.60
2022-10-02T07:09:45.734Z,2.40
2022-10-02T07:15:25.319Z,2.40
2022-10-02T07:21:03.765Z,2.30
2022-10-02T07:26:24.915Z,2.40
2022-10-02T07:32:03.652Z,2.50
2022-10-02T07:37:43.335Z,2.50
2022-10-02T07:43:09.498Z,3.00
2022-10-02T07:48:41.153Z,2.40
2022-10-02T07:53:56.100Z,2.90
2022-10-02T07:59:06.515Z,3.20
2022-10-02T08:04:37.108Z,3.30
2022-10-02T08:09:48.165Z,3.70
2022-10-02T08:14:54.853Z,4.10
2022-10-02T08:20:29.380Z,3.30
2022-10-02T08:25:40.426Z,3.60
2022-10-02T08:30:42.110Z,3.20
2022-10-02T08:36:20.941Z,3.40
2022-10-02T08:41:36.027Z,3.70
2022-10-02T08:47:10.306Z,3.50
2022-10-02T08:52:36.522Z,4.30
2022-10-02T08:58:14.821Z,3.90
2022-10-02T09:03:32.728Z,3.60
2022-10-02T09:09:12.072Z,3.20
2022-10-02T09:14:38.047Z,3.50
2022-10-02T09:19:59.297Z,4.20
2022-10-02T09:25:37.903Z,3.30
2022-10-02T09:31:18.485Z,3.30
2022-10-02T09:36:45.152Z,4.00
2022-10-02T09:42:08.180Z,3.30
2022-10-02T09:47:18.260Z,3.40
2022-10-02T09:52:58.649Z,3.00
2022-10-02T09:58:18.326Z,3.70
2022-10-02T10:03:28.626Z,3.50
2022-10-02T10:09:08.079Z,3.90
2022-10-02T10:14:43.344Z,3.10
2022-10-02T10:20:22.406Z,3.10
2022-10-02T10:25:35.137Z,3.50
2022-10-02T10:31:01.417Z,2.80
2022-10-02T10:36:52.947Z,3.50
2022-10-02T10:42:06.971Z,3.40
2022-10-02T10:47:28.579Z,3.10
2022-10-02T10:52:44.944Z,2.60
2022-10-02T10:58:20.456Z,3.30
2022-10-02T11:03:44.206Z,2.80
2022-10-02T11:09:12.944Z,2.70
2022-10-02T11:14:51.802Z,2.50
2022-10-02T11:20:18.361Z,2.30
2022-10-02T11:25:57.245Z,2.20
2022-10-02T11:31:36.718Z,2.30
2022-10-02T11:36:43.716Z,2.30
2022-10-02T11:42:05.079Z,2.20
2022-10-02T11:47:08.862Z,2.30
2022-10-02T11:52:17.414Z,2.00
2022-10-02T11:57:56.399Z,2.00
2022-10-02T12:03:23.731Z,2.10
2022-10-02T12:08:46.279Z,2.10
2022-10-02T12:14:26.624Z,2.20
2022-10-02T12:20:16.970Z,2.20
2022-10-02T12:25:50.657Z,2.10
2022-10-02T12:31:04.494Z,2.60
2022-10-02T12:36:37.380Z,2.10
2022-10-02T12:42:16.472Z,2.60
2022-10-02T12:47:50.995Z,2.40
2022-10-02T12:53:11.159Z,2.10
2022-10-02T12:58:37.261Z,2.20
2022-10-02T13:04:12.607Z,2.30
2022-10-02T13:09:33.693Z,2.20
2022-10-02T13:15:02.235Z,1.90
2022-10-02T13:20:09.954Z,2.20
2022-10-02T13:25:33.648Z,2.30
2022-10-02T13:30:52.310Z,2.60
2022-10-02T13:36:00.850Z,2.70
2022-10-02T13:41:40.115Z,2.40
2022-10-02T13:47:00.266Z,2.30
2022-10-02T13:52:39.169Z,2.30
2022-10-02T13:57:51.838Z,2.70
2022-10-02T14:03:05.812Z,1.90
2022-10-02T14:08:35.040Z,2.00
2022-10-02T14:14:03.038Z,1.60
2022-10-02T14:19:24.664Z,1.40
2022-10-02T14:24:56.603Z,1.70
2022-10-02T14:30:16.577Z,1.60
2022-10-02T14:35:45.798Z,1.60
2022-10-02T14:40:55.055Z,1.50
2022-10-02T14:46:21.089Z,1.40
2022-10-02T14:51:55.843Z,1.70
2022-10-02T14:56:59.369Z,2.40
2022-10-02T15:02:08.860Z,1.80
2022-10-02T15:07:13.305Z,2.10
2022-10-02T15:12:21.597Z,1.50
2022-10-02T15:17:57.656Z,1.60
2022-10-02T15:23:06.567Z,1.70
2022-10-02T15:28:45.207Z,1.50
2022-10-02T15:34:25.539Z,1.20
2022-10-02T15:40:08.074Z,1.40
2022-10-02T15:45:32.622Z,1.90
2022-10-02T15:50:46.302Z,2.60
2022-10-02T15:56:25.540Z,2.70
2022-10-02T16:01:39.105Z,2.50
2022-10-02T16:06:52.849Z,2.80
2022-10-02T16:12:03.229Z,3.50
2022-10-02T16:17:31.796Z,3.50
2022-10-02T16:22:48.031Z,3.30
2022-10-02T16:28:26.905Z,4.40
2022-10-02T16:33:42.671Z,3.10
2022-10-02T16:38:55.414Z,3.50
2022-10-02T16:44:15.382Z,3.40
2022-10-02T16:49:56.254Z,2.50
2022-10-02T16:55:31.996Z,2.80
2022-10-02T17:00:40.235Z,3.00
2022-10-02T17:06:07.664Z,3.50
2022-10-02T17:11:19.233Z,4.30
2022-10-02T17:16:32.186Z,3.60
2022-10-02T17:21:36.366Z,8.00
2022-10-02T17:26:46.735Z,11.80
2022-10-02T17:31:53.302Z,3.60
2022-10-02T17:37:20.169Z,3.30
2022-10-02T17:42:43.060Z,4.30
2022-10-02T17:48:20.902Z,3.00
2022-10-02T17:53:59.739Z,3.80
2022-10-02T17:59:19.268Z,4.80
2022-10-02T18:04:58.550Z,4.80
2022-10-02T18:10:27.949Z,3.70
2022-10-02T18:16:06.723Z,3.50
2022-10-02T18:21:26.649Z,4.70
2022-10-02T18:27:05.764Z,4.10
2022-10-02T18:32:30.950Z,4.60
2022-10-02T18:37:44.648Z,3.50
2022-10-02T18:43:23.358Z,3.60
2022-10-02T18:49:02.056Z,3.40
2022-10-02T18:54:22.499Z,3.50
2022-10-02T19:00:01.281Z,3.50
2022-10-02T19:05:09.418Z,3.60
2022-10-02T19:10:29.714Z,3.70
2022-10-02T19:15:32.208Z,4.10
2022-10-02T19:20:53.981Z,3.70
2022-10-02T19:26:00.374Z,4.40
2022-10-02T19:31:05.732Z,4.20
2022-10-02T19:36:15.049Z,7.00
2022-10-02T19:41:17.918Z,4.30
2022-10-02T19:46:28.485Z,4.00
2022-10-02T19:51:41.638Z,4.00
2022-10-02T19:56:44.540Z,3.90
2022-10-02T20:01:53.683Z,3.70
2022-10-02T20:06:57.274Z,4.10
2022-10-02T20:12:18.535Z,4.10
2022-10-02T20:17:20.224Z,4.10
2022-10-02T20:22:39.846Z,3.50
2022-10-02T20:27:53.583Z,3.70
2022-10-02T20:33:07.854Z,3.10
2022-10-02T20:38:24.708Z,3.80
2022-10-02T20:43:35.316Z,3.70
2022-10-02T20:49:13.783Z,3.70
2022-10-02T20:54:37.554Z,3.50
2022-10-02T21:00:16.638Z,3.40
2022-10-02T21:05:36.659Z,4.10
2022-10-02T21:11:04.509Z,3.40
2022-10-02T21:16:14.023Z,3.50
2022-10-02T21:21:35.308Z,4.10
2022-10-02T21:32:23.934Z,4.10
2022-10-02T21:37:54.816Z,3.70
2022-10-02T21:43:10.246Z,3.70
2022-10-02T21:48:48.991Z,3.20
2022-10-02T21:54:09.225Z,3.10
2022-10-02T21:59:41.214Z,3.40
2022-10-02T22:05:04.199Z,2.90
2022-10-02T22:10:10.209Z,2.70
2022-10-02T22:15:23.017Z,2.80
2022-10-02T22:20:38.817Z,3.10
2022-10-02T22:25:45.817Z,2.80
2022-10-02T22:31:23.250Z,2.60
2022-10-02T22:36:47.667Z,2.80
2022-10-02T22:41:51.934Z,2.50
2022-10-02T22:47:05.029Z,2.90
2022-10-02T22:52:07.162Z,2.30
2022-10-02T22:57:37.451Z,2.50
2022-10-02T23:03:12.534Z,2.40
2022-10-02T23:08:37.585Z,2.30
2022-10-02T23:13:55.889Z,2.20
2022-10-02T23:19:26.243Z,2.10
2022-10-02T23:24:33.804Z,2.40
2022-10-02T23:29:53.259Z,2.30
2022-10-02T23:35:13.186Z,1.80
2022-10-02T23:41:12.140Z,2.00
2022-10-02T23:46:19.244Z,2.00
2022-10-02T23:51:57.589Z,2.40
2022-10-02T23:57:11.935Z,2.30
